createdAt,value
2019-03-31T00:01:45.131Z,81.32
2019-03-31T00:04:19.716Z,83.60
2019-03-31T00:06:53.793Z,88.00
2019-03-31T00:09:28.522Z,83.78
2019-03-31T00:12:02.967Z,85.60
2019-03-31T00:14:37.447Z,89.45
2019-03-31T00:17:11.987Z,93.82
2019-03-31T00:19:46.146Z,90.07
2019-03-31T00:22:20.232Z,90.40
2019-03-31T00:24:53.901Z,89.60
2019-03-31T00:27:28.984Z,92.20
2019-03-31T00:30:04.430Z,88.17
2019-03-31T00:32:39.071Z,101.25
2019-03-31T00:35:14.086Z,105.10
2019-03-31T00:37:49.215Z,115.62
2019-03-31T00:40:24.234Z,115.55
2019-03-31T00:42:58.713Z,114.75
2019-03-31T00:45:33.483Z,118.70
2019-03-31T00:48:08.670Z,119.87
2019-03-31T00:50:42.603Z,115.10
2019-03-31T00:53:17.690Z,118.82
2019-03-31T00:55:51.789Z,109.75
2019-03-31T00:58:26.384Z,107.72
2019-03-31T01:01:35.419Z,109.60
2019-03-31T01:03:58.414Z,107.60
2019-03-31T01:06:34.990Z,109.32
2019-03-31T01:09:26.690Z,97.17
2019-03-31T01:12:01.701Z,88.62
2019-03-31T01:14:36.588Z,90.60
2019-03-31T01:17:12.127Z,90.92
2019-03-31T01:19:47.087Z,94.28
2019-03-31T01:22:21.709Z,89.07
2019-03-31T01:24:55.790Z,93.12
2019-03-31T01:27:30.433Z,84.97
2019-03-31T01:30:04.954Z,86.28
2019-03-31T01:32:39.478Z,92.82
2019-03-31T01:35:13.968Z,91.02
2019-03-31T01:37:47.999Z,88.33
2019-03-31T01:40:23.281Z,85.12
2019-03-31T01:42:58.290Z,87.17
2019-03-31T01:45:31.963Z,81.67
2019-03-31T01:48:07.101Z,83.20
2019-03-31T01:50:41.240Z,87.08
2019-03-31T01:53:15.688Z,87.88
2019-03-31T01:55:50.723Z,83.20
2019-03-31T01:58:25.240Z,91.47
2019-03-31T02:01:02.006Z,85.72
2019-03-31T02:03:36.509Z,90.25
2019-03-31T02:06:11.341Z,86.75
2019-03-31T02:08:45.556Z,84.85
2019-03-31T02:11:20.013Z,85.32
2019-03-31T02:13:54.502Z,84.00
2019-03-31T02:16:28.679Z,90.55
2019-03-31T02:19:03.888Z,82.97
2019-03-31T02:21:38.367Z,85.72
2019-03-31T02:24:13.095Z,84.95
2019-03-31T02:26:48.453Z,86.92
2019-03-31T02:29:22.988Z,81.10
2019-03-31T02:31:57.635Z,85.62
2019-03-31T02:34:32.126Z,77.00
2019-03-31T02:37:07.164Z,79.95
2019-03-31T02:39:42.128Z,83.85
2019-03-31T02:42:16.210Z,87.60
2019-03-31T02:44:50.739Z,85.53
2019-03-31T02:47:25.456Z,81.65
2019-03-31T02:49:59.965Z,80.10
2019-03-31T02:52:34.095Z,86.02
2019-03-31T02:55:09.436Z,86.08
2019-03-31T02:57:44.480Z,81.37
2019-03-31T03:00:19.108Z,80.67
2019-03-31T03:02:54.800Z,86.95
2019-03-31T03:05:31.885Z,85.20
2019-03-31T03:08:06.662Z,77.82
2019-03-31T03:10:40.983Z,82.82
2019-03-31T03:13:16.727Z,79.20
2019-03-31T03:16:24.056Z,84.65
2019-03-31T03:18:58.671Z,94.15
2019-03-31T03:21:33.371Z,92.10
2019-03-31T03:24:08.500Z,88.15
2019-03-31T03:26:43.328Z,89.28
2019-03-31T03:29:18.266Z,100.47
2019-03-31T03:31:53.324Z,99.77
2019-03-31T03:34:27.421Z,100.80
2019-03-31T03:37:02.440Z,97.10
2019-03-31T03:39:37.403Z,92.85
2019-03-31T03:42:11.643Z,103.17
2019-03-31T03:44:46.135Z,91.87
2019-03-31T03:47:20.794Z,100.00
2019-03-31T03:49:54.915Z,94.60
2019-03-31T03:52:30.022Z,100.40
2019-03-31T03:55:04.185Z,103.27
2019-03-31T03:57:38.370Z,93.72
2019-03-31T04:00:13.386Z,97.62
2019-03-31T04:02:47.896Z,107.83
2019-03-31T04:05:21.556Z,100.90
2019-03-31T04:07:56.010Z,102.20
2019-03-31T04:11:28.514Z,101.90
2019-03-31T04:14:03.371Z,98.20
2019-03-31T04:16:37.529Z,104.47
2019-03-31T04:19:11.977Z,103.75
2019-03-31T04:21:46.791Z,97.97
2019-03-31T04:24:21.784Z,101.38
2019-03-31T04:26:56.602Z,93.60
2019-03-31T04:29:31.390Z,102.82
2019-03-31T04:32:05.831Z,97.85
2019-03-31T04:34:40.964Z,103.30
2019-03-31T04:37:15.592Z,101.92
2019-03-31T04:39:50.033Z,107.45
2019-03-31T04:42:24.969Z,107.00
2019-03-31T04:44:59.470Z,110.32
2019-03-31T04:47:34.212Z,104.60
2019-03-31T04:50:08.540Z,108.67
2019-03-31T04:52:42.989Z,98.92
2019-03-31T04:55:17.661Z,103.65
2019-03-31T04:57:52.101Z,100.07
2019-03-31T05:00:27.222Z,107.07
2019-03-31T05:03:02.356Z,109.72
2019-03-31T05:05:37.421Z,105.52
2019-03-31T05:08:12.838Z,105.37
2019-03-31T05:10:47.161Z,103.92
2019-03-31T05:13:20.752Z,109.37
2019-03-31T05:15:55.387Z,105.80
2019-03-31T05:18:29.896Z,89.60
2019-03-31T05:21:04.160Z,107.70
2019-03-31T05:23:38.498Z,101.12
2019-03-31T05:26:12.689Z,101.47
2019-03-31T05:28:47.721Z,109.45
2019-03-31T05:31:22.245Z,105.30
2019-03-31T05:33:56.765Z,106.97
2019-03-31T05:36:31.490Z,103.97
2019-03-31T05:39:07.731Z,102.95
2019-03-31T05:41:42.260Z,108.37
2019-03-31T05:44:16.868Z,101.58
2019-03-31T05:46:50.913Z,105.47
2019-03-31T05:49:25.833Z,100.87
2019-03-31T05:52:01.175Z,98.33
2019-03-31T05:54:36.206Z,99.52
2019-03-31T05:57:10.699Z,95.85
2019-03-31T05:59:44.847Z,91.92
2019-03-31T06:02:18.955Z,87.33
2019-03-31T06:04:53.062Z,85.32
2019-03-31T06:07:27.177Z,83.87
2019-03-31T06:10:02.094Z,94.45
2019-03-31T06:12:37.257Z,80.35
2019-03-31T06:15:11.645Z,90.67
2019-03-31T06:17:46.289Z,77.12
2019-03-31T06:20:21.335Z,72.17
2019-03-31T06:22:55.958Z,78.83
2019-03-31T06:25:31.739Z,76.17
2019-03-31T06:28:06.236Z,75.75
2019-03-31T06:30:41.367Z,80.20
2019-03-31T06:33:16.301Z,72.95
2019-03-31T06:35:51.521Z,75.75
2019-03-31T06:38:25.749Z,75.32
2019-03-31T06:40:59.769Z,69.20
2019-03-31T06:43:34.730Z,72.08
2019-03-31T06:46:09.126Z,70.55
2019-03-31T06:48:43.642Z,78.17
2019-03-31T06:51:18.284Z,70.20
2019-03-31T06:53:52.858Z,75.92
2019-03-31T06:56:27.304Z,69.95
2019-03-31T06:59:02.395Z,69.00
2019-03-31T07:01:37.525Z,67.10
2019-03-31T07:04:12.553Z,72.30
2019-03-31T07:06:47.675Z,76.92
2019-03-31T07:09:22.293Z,74.25
2019-03-31T07:11:56.716Z,70.03
2019-03-31T07:14:31.581Z,71.87
2019-03-31T07:17:06.112Z,73.10
2019-03-31T07:19:40.591Z,72.45
2019-03-31T07:22:14.320Z,67.00
2019-03-31T07:24:48.703Z,69.27
2019-03-31T07:27:22.961Z,59.03
2019-03-31T07:29:57.846Z,61.42
2019-03-31T07:32:32.880Z,64.53
2019-03-31T07:35:17.870Z,72.92
2019-03-31T07:37:47.397Z,63.80
2019-03-31T07:40:19.146Z,63.25
2019-03-31T07:42:54.287Z,61.40
2019-03-31T07:45:29.964Z,61.23
2019-03-31T07:48:03.887Z,59.95
2019-03-31T07:50:38.154Z,55.05
2019-03-31T07:53:12.568Z,51.92
2019-03-31T07:55:47.092Z,53.90
2019-03-31T07:58:21.780Z,50.65
2019-03-31T08:00:57.351Z,50.28
2019-03-31T08:03:32.022Z,57.85
2019-03-31T08:06:07.186Z,55.70
2019-03-31T08:08:42.311Z,56.23
2019-03-31T08:11:17.175Z,50.85
2019-03-31T08:13:55.090Z,54.48
2019-03-31T08:16:27.419Z,54.63
2019-03-31T08:19:02.288Z,59.25
2019-03-31T08:21:35.914Z,54.60
2019-03-31T08:24:11.239Z,48.90
2019-03-31T08:26:46.166Z,51.53
2019-03-31T08:29:21.331Z,50.23
2019-03-31T08:31:56.236Z,52.25
2019-03-31T08:34:31.273Z,47.67
2019-03-31T08:37:05.409Z,45.90
2019-03-31T08:39:40.449Z,45.50
2019-03-31T08:42:15.437Z,43.80
2019-03-31T08:44:50.296Z,44.42
2019-03-31T08:47:27.258Z,38.45
2019-03-31T08:50:02.828Z,38.67
2019-03-31T08:52:38.098Z,36.77
2019-03-31T08:55:13.410Z,34.10
2019-03-31T08:57:48.025Z,33.15
2019-03-31T09:00:33.977Z,40.98
2019-03-31T09:03:09.539Z,38.33
2019-03-31T09:05:44.622Z,37.38
2019-03-31T09:08:20.889Z,40.25
2019-03-31T09:10:55.432Z,39.40
2019-03-31T09:13:30.547Z,41.20
2019-03-31T09:16:05.037Z,40.15
2019-03-31T09:18:39.999Z,43.10
2019-03-31T09:21:15.068Z,37.95
2019-03-31T09:23:50.512Z,39.35
2019-03-31T09:26:24.927Z,37.88
2019-03-31T09:28:59.311Z,36.03
2019-03-31T09:31:34.068Z,35.52
2019-03-31T09:34:09.414Z,32.80
2019-03-31T09:36:43.842Z,38.00
2019-03-31T09:39:18.523Z,35.30
2019-03-31T09:41:53.217Z,37.15
2019-03-31T09:44:30.273Z,38.20
2019-03-31T09:47:04.114Z,35.03
2019-03-31T09:49:39.174Z,32.28
2019-03-31T09:52:13.803Z,34.33
2019-03-31T09:54:48.459Z,39.05
2019-03-31T09:57:23.464Z,41.20
2019-03-31T09:59:57.606Z,35.23
2019-03-31T10:02:31.235Z,41.05
2019-03-31T10:05:04.684Z,38.42
2019-03-31T10:07:42.607Z,39.65
2019-03-31T10:10:33.903Z,38.67
2019-03-31T10:13:08.651Z,39.95
2019-03-31T10:15:43.704Z,41.55
2019-03-31T10:18:18.567Z,41.40
2019-03-31T10:20:53.361Z,40.00
2019-03-31T10:23:26.707Z,40.60
2019-03-31T10:26:01.129Z,36.65
2019-03-31T10:28:35.295Z,39.50
2019-03-31T10:31:09.530Z,36.38
2019-03-31T10:33:43.634Z,37.58
2019-03-31T10:36:18.229Z,39.42
2019-03-31T10:38:53.166Z,38.10
2019-03-31T10:41:29.496Z,40.83
2019-03-31T10:44:01.665Z,37.83
2019-03-31T10:46:35.395Z,37.30
2019-03-31T10:49:10.871Z,35.23
2019-03-31T10:51:44.271Z,38.30
2019-03-31T10:54:18.490Z,38.13
2019-03-31T10:56:52.960Z,36.88
2019-03-31T10:59:27.314Z,33.30
2019-03-31T11:02:01.660Z,38.90
2019-03-31T11:04:35.010Z,38.30
2019-03-31T11:07:09.107Z,39.65
2019-03-31T11:09:42.709Z,38.95
2019-03-31T11:12:16.012Z,34.15
2019-03-31T11:14:59.130Z,41.13
2019-03-31T11:17:32.916Z,36.50
2019-03-31T11:20:08.015Z,41.58
2019-03-31T11:22:50.510Z,37.17
2019-03-31T11:25:28.935Z,42.27
2019-03-31T11:27:58.619Z,39.90
2019-03-31T11:30:31.840Z,39.95
2019-03-31T11:33:07.505Z,37.88
2019-03-31T11:35:40.038Z,37.42
2019-03-31T11:38:12.902Z,45.05
2019-03-31T11:40:48.688Z,38.80
2019-03-31T11:43:22.525Z,39.40
2019-03-31T11:45:57.511Z,36.33
2019-03-31T11:48:31.243Z,38.70
2019-03-31T11:51:04.975Z,44.08
2019-03-31T11:53:39.281Z,38.15
2019-03-31T11:56:12.543Z,40.28
2019-03-31T11:58:46.467Z,41.37
2019-03-31T12:01:19.782Z,37.58
2019-03-31T12:03:54.704Z,42.05
2019-03-31T12:06:28.918Z,37.17
2019-03-31T12:09:02.243Z,38.20
2019-03-31T12:11:36.619Z,40.83
2019-03-31T12:14:10.968Z,34.00
2019-03-31T12:16:44.123Z,33.13
2019-03-31T12:19:17.593Z,35.58
2019-03-31T12:21:52.437Z,30.62
2019-03-31T12:24:26.174Z,30.68
2019-03-31T12:27:01.212Z,31.00
2019-03-31T12:29:36.029Z,32.55
2019-03-31T12:32:10.726Z,37.08
2019-03-31T12:34:45.419Z,30.23
2019-03-31T12:37:20.824Z,30.23
2019-03-31T12:39:55.772Z,30.10
2019-03-31T12:42:30.604Z,24.77
2019-03-31T12:45:05.586Z,28.02
2019-03-31T12:47:40.148Z,27.95
2019-03-31T12:50:14.258Z,29.85
2019-03-31T12:52:51.123Z,26.37
2019-03-31T12:55:25.997Z,26.50
2019-03-31T12:58:00.934Z,28.42
2019-03-31T13:00:34.564Z,30.55
2019-03-31T13:03:08.746Z,30.15
2019-03-31T13:05:43.440Z,28.83
2019-03-31T13:08:17.965Z,28.55
2019-03-31T13:10:52.799Z,32.55
2019-03-31T13:13:27.864Z,34.67
2019-03-31T13:16:02.461Z,30.55
2019-03-31T13:18:36.984Z,30.97
2019-03-31T13:21:11.389Z,31.37
2019-03-31T13:23:45.927Z,27.50
2019-03-31T13:26:20.848Z,29.30
2019-03-31T13:28:55.603Z,28.23
2019-03-31T13:31:30.529Z,29.07
2019-03-31T13:34:04.808Z,27.67
2019-03-31T13:36:39.243Z,27.80
2019-03-31T13:39:12.809Z,26.82
2019-03-31T13:41:47.905Z,30.62
2019-03-31T13:44:22.558Z,30.95
2019-03-31T13:46:57.688Z,33.83
2019-03-31T13:49:32.862Z,32.10
2019-03-31T13:52:07.967Z,30.97
2019-03-31T13:54:42.513Z,32.85
2019-03-31T13:57:16.953Z,28.65
2019-03-31T13:59:52.642Z,24.98
2019-03-31T14:02:26.417Z,34.38
2019-03-31T14:05:01.170Z,30.08
2019-03-31T14:07:35.362Z,28.75
2019-03-31T14:10:10.711Z,30.20
2019-03-31T14:12:45.286Z,36.95
2019-03-31T14:15:19.898Z,31.45
2019-03-31T14:17:55.100Z,31.70
2019-03-31T14:20:30.160Z,32.65
2019-03-31T14:23:03.863Z,31.93
2019-03-31T14:25:38.240Z,30.10
2019-03-31T14:28:13.041Z,32.10
2019-03-31T14:30:47.143Z,31.52
2019-03-31T14:33:21.569Z,30.27
2019-03-31T14:35:55.613Z,33.08
2019-03-31T14:38:40.094Z,31.60
2019-03-31T14:41:05.112Z,29.30
2019-03-31T14:43:39.479Z,30.60
2019-03-31T14:46:13.185Z,28.83
2019-03-31T14:48:47.465Z,31.82
2019-03-31T14:51:21.559Z,26.68
2019-03-31T14:53:56.637Z,26.30
2019-03-31T14:56:31.102Z,28.80
2019-03-31T14:59:06.322Z,29.75
2019-03-31T15:01:41.077Z,30.00
2019-03-31T15:04:15.588Z,31.20
2019-03-31T15:06:48.319Z,34.90
2019-03-31T15:09:22.031Z,33.02
2019-03-31T15:11:56.138Z,30.62
2019-03-31T15:14:30.506Z,31.35
2019-03-31T15:17:05.010Z,30.88
2019-03-31T15:19:38.141Z,29.23
2019-03-31T15:22:11.348Z,32.98
2019-03-31T15:24:45.186Z,30.85
2019-03-31T15:27:18.754Z,33.40
2019-03-31T15:29:52.420Z,37.05
2019-03-31T15:32:26.805Z,40.63
2019-03-31T15:34:59.678Z,35.48
2019-03-31T15:37:33.983Z,41.10
2019-03-31T15:40:08.178Z,35.80
2019-03-31T15:42:41.412Z,34.45
2019-03-31T15:45:15.698Z,37.90
2019-03-31T15:47:50.560Z,40.08
2019-03-31T15:50:24.951Z,39.95
2019-03-31T15:52:59.351Z,38.02
2019-03-31T15:55:34.460Z,35.65
2019-03-31T15:58:09.527Z,34.50
2019-03-31T16:00:44.606Z,34.78
2019-03-31T16:03:18.974Z,35.15
2019-03-31T16:05:54.021Z,35.33
2019-03-31T16:08:28.261Z,33.60
2019-03-31T16:11:04.651Z,33.40
2019-03-31T16:13:37.205Z,35.25
2019-03-31T16:16:14.117Z,33.42
2019-03-31T16:18:46.139Z,29.45
2019-03-31T16:21:19.828Z,31.40
2019-03-31T16:23:53.582Z,29.48
2019-03-31T16:26:27.351Z,28.52
2019-03-31T16:29:00.987Z,31.97
2019-03-31T16:31:34.266Z,31.97
2019-03-31T16:34:08.379Z,32.50
2019-03-31T16:36:42.465Z,31.02
2019-03-31T16:39:16.577Z,28.77
2019-03-31T16:41:50.592Z,26.70
2019-03-31T16:44:24.318Z,26.97
2019-03-31T16:46:58.410Z,26.82
2019-03-31T16:49:31.641Z,26.50
2019-03-31T16:52:05.762Z,27.77
2019-03-31T16:54:39.982Z,30.05
2019-03-31T16:57:13.652Z,26.70
2019-03-31T16:59:47.805Z,29.30
2019-03-31T17:02:21.988Z,28.45
2019-03-31T17:04:55.616Z,24.65
2019-03-31T17:07:29.317Z,24.35
2019-03-31T17:10:04.049Z,25.85
2019-03-31T17:12:38.159Z,27.02
2019-03-31T17:15:12.959Z,31.68
2019-03-31T17:17:46.594Z,29.63
2019-03-31T17:20:20.188Z,27.45
2019-03-31T17:22:54.315Z,25.02
2019-03-31T17:25:28.578Z,26.10
2019-03-31T17:28:02.281Z,22.73
2019-03-31T17:30:35.694Z,25.25
2019-03-31T17:33:08.717Z,20.88
2019-03-31T17:35:41.554Z,26.85
2019-03-31T17:38:14.509Z,25.48
2019-03-31T17:40:46.955Z,23.62
2019-03-31T17:43:19.718Z,21.50
2019-03-31T17:45:52.070Z,20.60
2019-03-31T17:48:25.475Z,19.77
2019-03-31T17:50:59.503Z,18.82
2019-03-31T17:53:32.408Z,19.98
2019-03-31T17:56:04.945Z,18.35
2019-03-31T17:58:37.903Z,18.12
2019-03-31T18:01:10.345Z,18.67
2019-03-31T18:03:44.120Z,21.15
2019-03-31T18:06:17.082Z,18.80
2019-03-31T18:08:50.531Z,17.57
2019-03-31T18:11:22.947Z,19.90
2019-03-31T18:13:57.083Z,15.38
2019-03-31T18:16:29.929Z,16.97
2019-03-31T18:19:03.050Z,20.10
2019-03-31T18:21:35.510Z,22.75
2019-03-31T18:24:09.354Z,23.30
2019-03-31T18:26:41.821Z,20.57
2019-03-31T18:29:14.342Z,22.20
2019-03-31T18:31:48.552Z,18.98
2019-03-31T18:34:21.071Z,21.05
2019-03-31T18:36:53.496Z,17.73
2019-03-31T18:39:27.495Z,23.87
2019-03-31T18:42:00.822Z,19.50
2019-03-31T18:44:33.214Z,18.60
2019-03-31T18:47:05.736Z,23.30
2019-03-31T18:49:38.061Z,22.67
2019-03-31T18:52:10.113Z,23.57
2019-03-31T18:55:00.477Z,21.20
2019-03-31T18:58:15.337Z,20.62
2019-03-31T19:00:59.850Z,25.72
2019-03-31T19:04:03.291Z,21.82
2019-03-31T19:06:44.023Z,29.40
2019-03-31T19:09:40.414Z,29.60
2019-03-31T19:12:40.862Z,32.28
2019-03-31T19:15:25.671Z,31.57
2019-03-31T19:18:07.295Z,29.45
2019-03-31T19:21:10.411Z,25.40
2019-03-31T19:23:49.647Z,23.40
2019-03-31T19:26:53.023Z,21.77
2019-03-31T19:29:50.146Z,23.45
2019-03-31T19:32:50.377Z,22.93
2019-03-31T19:35:33.489Z,21.90
2019-03-31T19:38:22.608Z,19.90
2019-03-31T19:41:16.924Z,17.82
2019-03-31T19:44:13.076Z,19.62
2019-03-31T19:47:07.536Z,19.50
2019-03-31T19:50:05.949Z,21.95
2019-03-31T19:52:52.615Z,19.50
2019-03-31T19:55:45.923Z,18.75
2019-03-31T19:58:40.187Z,19.30
2019-03-31T20:01:37.906Z,20.12
2019-03-31T20:04:30.440Z,21.15
2019-03-31T20:07:30.271Z,19.48
2019-03-31T20:10:22.251Z,20.43
2019-03-31T20:13:11.268Z,21.42
2019-03-31T20:15:57.679Z,23.67
2019-03-31T20:18:42.636Z,19.62
2019-03-31T20:21:32.563Z,20.85
2019-03-31T20:24:15.852Z,22.40
2019-03-31T20:26:55.374Z,23.25
2019-03-31T20:29:39.424Z,23.42
2019-03-31T20:32:30.176Z,23.45
2019-03-31T20:35:34.350Z,23.12
2019-03-31T20:38:15.340Z,24.85
2019-03-31T20:41:16.087Z,22.93
2019-03-31T20:43:56.630Z,26.50
2019-03-31T20:46:29.447Z,26.52
2019-03-31T20:49:02.290Z,28.05
2019-03-31T20:51:34.681Z,24.50
2019-03-31T20:54:08.477Z,27.82
2019-03-31T20:56:42.092Z,26.37
2019-03-31T20:59:16.284Z,28.05
2019-03-31T21:01:49.607Z,23.30
2019-03-31T21:04:23.691Z,26.50
2019-03-31T21:06:56.509Z,28.32
2019-03-31T21:09:43.766Z,23.70
2019-03-31T21:12:05.038Z,32.42
2019-03-31T21:14:37.471Z,30.08
2019-03-31T21:17:11.634Z,33.48
2019-03-31T21:19:45.823Z,28.35
2019-03-31T21:22:19.524Z,30.75
2019-03-31T21:24:53.509Z,29.75
2019-03-31T21:27:27.265Z,26.97
2019-03-31T21:30:00.895Z,28.67
2019-03-31T21:32:34.770Z,33.73
2019-03-31T21:35:08.372Z,31.70
2019-03-31T21:37:42.081Z,31.52
2019-03-31T21:40:15.789Z,37.50
2019-03-31T21:42:49.531Z,34.03
2019-03-31T21:45:22.983Z,36.53
2019-03-31T21:47:57.073Z,33.30
2019-03-31T21:50:31.270Z,38.05
2019-03-31T21:53:04.359Z,35.98
2019-03-31T21:55:38.088Z,38.42
2019-03-31T21:58:11.693Z,36.23
2019-03-31T22:01:03.212Z,36.75
2019-03-31T22:03:37.043Z,35.70
2019-03-31T22:06:11.031Z,40.85
2019-03-31T22:08:45.243Z,35.90
2019-03-31T22:11:19.103Z,38.58
2019-03-31T22:13:52.758Z,38.67
2019-03-31T22:16:26.736Z,35.92
2019-03-31T22:19:00.867Z,38.35
2019-03-31T22:21:34.681Z,39.55
2019-03-31T22:24:09.287Z,41.28
2019-03-31T22:26:42.476Z,34.20
2019-03-31T22:29:16.493Z,38.30
2019-03-31T22:31:50.055Z,36.33
2019-03-31T22:34:23.779Z,32.85
2019-03-31T22:37:15.610Z,40.45
2019-03-31T22:39:48.922Z,33.85
2019-03-31T22:42:22.546Z,34.23
2019-03-31T22:44:55.611Z,36.03
2019-03-31T22:47:29.623Z,34.13
2019-03-31T22:50:02.832Z,28.85
2019-03-31T22:52:36.526Z,33.55
2019-03-31T22:55:09.878Z,32.50
2019-03-31T22:57:44.330Z,26.70
2019-03-31T23:00:21.772Z,24.70
2019-03-31T23:02:55.090Z,30.80
2019-03-31T23:05:28.385Z,28.05
2019-03-31T23:08:02.559Z,33.50
2019-03-31T23:10:37.159Z,25.48
2019-03-31T23:13:11.005Z,29.60
2019-03-31T23:15:45.230Z,33.95
2019-03-31T23:18:19.216Z,28.65
2019-03-31T23:20:53.120Z,23.25
2019-03-31T23:23:26.328Z,27.80
2019-03-31T23:26:00.202Z,27.17
2019-03-31T23:28:35.582Z,26.25
2019-03-31T23:31:09.778Z,28.30
2019-03-31T23:33:44.003Z,30.25
2019-03-31T23:36:17.801Z,33.48
2019-03-31T23:38:51.929Z,29.02
2019-03-31T23:41:26.116Z,27.95
2019-03-31T23:43:59.941Z,28.32
2019-03-31T23:46:34.106Z,28.32
2019-03-31T23:49:07.637Z,28.10
2019-03-31T23:51:41.796Z,29.67
2019-03-31T23:54:15.877Z,28.10
2019-03-31T23:56:49.546Z,32.80
2019-03-31T23:59:22.978Z,29.00
